createdAt,value
2019-02-20T00:00:21.604Z,14.03
2019-02-20T00:02:52.897Z,22.13
2019-02-20T00:05:24.123Z,15.60
2019-02-20T00:07:55.278Z,21.23
2019-02-20T00:10:26.510Z,22.20
2019-02-20T00:12:57.739Z,17.63
2019-02-20T00:15:28.918Z,20.30
2019-02-20T00:18:00.143Z,13.77
2019-02-20T00:20:31.398Z,24.07
2019-02-20T00:23:02.596Z,17.67
2019-02-20T00:25:36.001Z,17.33
2019-02-20T00:28:40.611Z,16.30
2019-02-20T00:31:12.558Z,12.30
2019-02-20T00:33:46.930Z,21.87
2019-02-20T00:36:27.355Z,16.93
2019-02-20T00:39:04.661Z,22.07
2019-02-20T00:41:44.623Z,14.53
2019-02-20T00:44:32.643Z,17.93
2019-02-20T00:47:25.063Z,21.33
2019-02-20T00:50:05.159Z,13.77
2019-02-20T00:53:06.748Z,18.70
2019-02-20T00:55:51.287Z,16.00
2019-02-20T00:58:25.586Z,11.90
2019-02-20T01:01:09.339Z,15.80
2019-02-20T01:03:44.141Z,13.27
2019-02-20T01:06:28.852Z,19.40
2019-02-20T01:09:05.860Z,20.87
2019-02-20T01:11:49.589Z,16.93
2019-02-20T01:14:24.078Z,21.87
2019-02-20T01:16:58.352Z,22.10
2019-02-20T01:19:32.316Z,18.87
2019-02-20T01:22:06.512Z,19.17
2019-02-20T01:24:43.981Z,16.50
2019-02-20T01:27:18.079Z,26.53
2019-02-20T01:29:52.755Z,16.27
2019-02-20T01:32:24.017Z,19.80
2019-02-20T01:34:55.276Z,17.97
2019-02-20T01:37:26.550Z,13.07
2019-02-20T01:39:57.890Z,18.23
2019-02-20T01:42:29.127Z,14.67
2019-02-20T01:45:00.410Z,17.73
2019-02-20T01:47:31.679Z,15.20
2019-02-20T01:50:02.914Z,16.83
2019-02-20T01:52:34.196Z,15.77
2019-02-20T01:55:06.142Z,15.87
2019-02-20T01:57:37.323Z,18.20
2019-02-20T02:00:10.056Z,16.07
2019-02-20T02:02:41.301Z,15.77
2019-02-20T02:05:15.874Z,13.43
2019-02-20T02:07:45.635Z,23.90
2019-02-20T02:10:16.891Z,24.03
2019-02-20T02:12:48.060Z,17.53
2019-02-20T02:15:20.674Z,17.40
2019-02-20T02:17:52.073Z,18.40
2019-02-20T02:20:23.333Z,20.80
2019-02-20T02:22:54.603Z,14.60
2019-02-20T02:25:25.832Z,14.00
2019-02-20T02:27:57.126Z,18.73
2019-02-20T02:30:28.353Z,13.33
2019-02-20T02:32:59.677Z,24.37
2019-02-20T02:35:30.811Z,23.27
2019-02-20T02:38:02.093Z,15.73
2019-02-20T02:40:33.314Z,12.60
2019-02-20T02:43:04.598Z,23.83
2019-02-20T02:45:35.856Z,24.63
2019-02-20T02:48:07.027Z,19.50
2019-02-20T02:50:38.392Z,14.27
2019-02-20T02:53:09.671Z,17.07
2019-02-20T02:55:40.837Z,17.23
2019-02-20T02:58:11.974Z,11.57
2019-02-20T03:00:43.271Z,16.30
2019-02-20T03:03:14.523Z,13.87
2019-02-20T03:05:45.786Z,17.43
2019-02-20T03:08:17.019Z,14.00
2019-02-20T03:10:48.282Z,21.20
2019-02-20T03:13:19.418Z,20.37
2019-02-20T03:15:50.718Z,18.40
2019-02-20T03:18:21.912Z,17.07
2019-02-20T03:20:53.148Z,24.70
2019-02-20T03:23:24.430Z,19.00
2019-02-20T03:25:55.683Z,19.40
2019-02-20T03:28:26.954Z,16.67
2019-02-20T03:30:58.102Z,22.77
2019-02-20T03:33:29.324Z,13.40
2019-02-20T03:36:00.558Z,16.40
2019-02-20T03:38:31.804Z,14.00
2019-02-20T03:41:03.105Z,13.90
2019-02-20T03:43:34.231Z,16.93
2019-02-20T03:46:05.469Z,15.50
2019-02-20T03:48:36.704Z,14.60
2019-02-20T03:51:07.937Z,16.60
2019-02-20T03:53:39.279Z,23.53
2019-02-20T03:56:11.203Z,24.80
2019-02-20T03:58:42.498Z,19.67
2019-02-20T04:01:13.696Z,20.40
2019-02-20T04:03:44.941Z,13.10
2019-02-20T04:06:16.163Z,21.00
2019-02-20T04:08:47.383Z,22.40
2019-02-20T04:11:18.649Z,25.40
2019-02-20T04:13:49.866Z,18.40
2019-02-20T04:16:21.133Z,15.50
2019-02-20T04:18:52.366Z,15.17
2019-02-20T04:21:23.756Z,18.43
2019-02-20T04:24:01.972Z,16.30
2019-02-20T04:26:27.922Z,23.73
2019-02-20T04:28:59.173Z,22.83
2019-02-20T04:31:30.446Z,20.73
2019-02-20T04:34:01.736Z,19.60
2019-02-20T04:36:32.976Z,26.83
2019-02-20T04:39:05.810Z,19.10
2019-02-20T04:41:37.017Z,21.67
2019-02-20T04:44:08.339Z,17.60
2019-02-20T04:46:39.583Z,15.13
2019-02-20T04:49:10.881Z,20.93
2019-02-20T04:51:42.079Z,18.40
2019-02-20T04:54:13.987Z,19.13
2019-02-20T04:56:45.285Z,18.50
2019-02-20T04:59:16.564Z,17.00
2019-02-20T05:01:47.734Z,24.30
2019-02-20T05:04:19.026Z,21.07
2019-02-20T05:06:50.262Z,25.07
2019-02-20T05:09:21.603Z,21.83
2019-02-20T05:11:52.805Z,22.30
2019-02-20T05:14:24.043Z,24.70
2019-02-20T05:16:55.344Z,23.43
2019-02-20T05:19:26.746Z,21.97
2019-02-20T05:21:57.953Z,25.70
2019-02-20T05:24:29.201Z,16.57
2019-02-20T05:27:00.442Z,13.83
2019-02-20T05:29:31.780Z,18.10
2019-02-20T05:32:03.028Z,20.93
2019-02-20T05:34:34.343Z,19.27
2019-02-20T05:37:05.552Z,19.63
2019-02-20T05:39:36.868Z,19.30
2019-02-20T05:42:08.129Z,21.60
2019-02-20T05:44:39.399Z,16.93
2019-02-20T05:47:10.675Z,20.03
2019-02-20T05:49:41.926Z,15.83
2019-02-20T05:52:13.175Z,17.13
2019-02-20T05:54:44.407Z,20.80
2019-02-20T05:57:15.639Z,25.23
2019-02-20T05:59:46.893Z,23.20
2019-02-20T06:02:18.901Z,18.70
2019-02-20T06:04:50.220Z,30.43
2019-02-20T06:07:21.609Z,24.83
2019-02-20T06:09:52.958Z,20.00
2019-02-20T06:12:32.033Z,15.70
2019-02-20T06:15:03.317Z,21.00
2019-02-20T06:17:34.893Z,30.87
2019-02-20T06:20:07.060Z,20.43
2019-02-20T06:22:38.483Z,20.10
2019-02-20T06:25:09.892Z,23.93
2019-02-20T06:27:41.326Z,39.43
2019-02-20T06:30:12.957Z,21.00
2019-02-20T06:32:44.228Z,26.80
2019-02-20T06:35:15.650Z,30.47
2019-02-20T06:37:46.951Z,19.93
2019-02-20T06:40:18.213Z,17.40
2019-02-20T06:42:49.445Z,20.80
2019-02-20T06:45:20.752Z,20.63
2019-02-20T06:47:52.007Z,23.70
2019-02-20T06:50:23.362Z,23.00
2019-02-20T06:52:54.675Z,21.30
2019-02-20T06:55:25.966Z,22.10
2019-02-20T06:57:57.232Z,24.27
2019-02-20T07:00:28.511Z,25.30
2019-02-20T07:02:59.827Z,21.27
2019-02-20T07:05:51.244Z,24.00
2019-02-20T07:09:16.686Z,21.50
2019-02-20T07:12:41.879Z,22.50
2019-02-20T07:16:23.990Z,15.97
2019-02-20T07:19:54.160Z,14.10
2019-02-20T07:23:04.416Z,35.10
2019-02-20T07:26:16.053Z,24.70
2019-02-20T07:29:29.333Z,24.03
2019-02-20T07:32:00.583Z,15.93
2019-02-20T07:34:31.883Z,20.50
2019-02-20T07:37:11.086Z,23.00
2019-02-20T07:40:00.570Z,17.77
2019-02-20T07:43:15.915Z,24.90
2019-02-20T07:45:47.122Z,22.60
2019-02-20T07:48:18.415Z,18.93
2019-02-20T07:50:49.654Z,23.13
2019-02-20T07:53:20.800Z,20.27
2019-02-20T07:56:02.876Z,24.43
2019-02-20T07:58:33.571Z,24.10
2019-02-20T08:01:04.855Z,21.53
2019-02-20T08:03:36.105Z,22.23
2019-02-20T08:06:07.286Z,20.50
2019-02-20T08:08:38.504Z,17.63
2019-02-20T08:11:09.690Z,21.90
2019-02-20T08:13:40.935Z,19.07
2019-02-20T08:16:12.257Z,28.00
2019-02-20T08:18:43.494Z,25.40
2019-02-20T08:21:14.785Z,22.23
2019-02-20T08:23:45.970Z,17.50
2019-02-20T08:26:17.160Z,21.00
2019-02-20T08:28:48.380Z,23.60
2019-02-20T08:31:19.665Z,20.30
2019-02-20T08:33:50.893Z,19.17
2019-02-20T08:36:22.106Z,18.07
2019-02-20T08:38:53.317Z,21.90
2019-02-20T08:41:24.602Z,25.73
2019-02-20T08:43:55.772Z,26.10
2019-02-20T08:46:27.008Z,19.03
2019-02-20T08:48:58.289Z,21.10
2019-02-20T08:51:29.573Z,19.97
2019-02-20T08:54:00.938Z,23.13
2019-02-20T08:56:32.182Z,21.50
2019-02-20T08:59:03.499Z,28.83
2019-02-20T09:01:34.807Z,20.20
2019-02-20T09:04:06.050Z,23.10
2019-02-20T09:06:37.264Z,22.37
2019-02-20T09:09:09.041Z,20.37
2019-02-20T09:11:40.313Z,19.53
2019-02-20T09:14:11.546Z,19.93
2019-02-20T09:16:42.861Z,21.60
2019-02-20T09:19:14.072Z,25.63
2019-02-20T09:21:45.495Z,19.67
2019-02-20T09:24:16.652Z,20.10
2019-02-20T09:26:48.002Z,22.80
2019-02-20T09:29:19.184Z,21.23
2019-02-20T09:31:50.364Z,20.47
2019-02-20T09:34:21.574Z,26.80
2019-02-20T09:36:52.859Z,28.00
2019-02-20T09:39:36.311Z,19.50
2019-02-20T09:42:10.722Z,23.27
2019-02-20T09:44:48.707Z,19.87
2019-02-20T09:47:21.056Z,19.87
2019-02-20T09:49:52.336Z,21.30
2019-02-20T09:52:23.531Z,24.00
2019-02-20T09:54:56.700Z,24.37
2019-02-20T09:57:27.940Z,20.23
2019-02-20T09:59:59.162Z,27.63
2019-02-20T10:02:30.412Z,27.10
2019-02-20T10:05:01.660Z,20.23
2019-02-20T10:07:32.920Z,24.53
2019-02-20T10:10:04.254Z,24.30
2019-02-20T10:12:35.648Z,19.50
2019-02-20T10:15:08.274Z,21.83
2019-02-20T10:17:39.531Z,22.60
2019-02-20T10:20:11.783Z,19.57
2019-02-20T10:22:43.050Z,23.03
2019-02-20T10:25:14.528Z,22.80
2019-02-20T10:27:45.813Z,20.27
2019-02-20T10:30:18.021Z,22.20
2019-02-20T10:32:49.280Z,19.23
2019-02-20T10:35:20.491Z,16.97
2019-02-20T10:37:52.984Z,21.57
2019-02-20T10:40:24.425Z,25.63
2019-02-20T10:42:55.638Z,27.53
2019-02-20T10:45:26.921Z,21.43
2019-02-20T10:47:58.229Z,25.10
2019-02-20T10:50:29.478Z,23.23
2019-02-20T10:53:00.740Z,25.30
2019-02-20T10:55:31.946Z,24.43
2019-02-20T10:58:03.183Z,32.23
2019-02-20T11:00:34.593Z,33.00
2019-02-20T11:03:05.873Z,21.20
2019-02-20T11:05:37.386Z,26.50
2019-02-20T11:08:08.643Z,25.90
2019-02-20T11:10:39.972Z,24.90
2019-02-20T11:13:11.225Z,20.90
2019-02-20T11:15:42.504Z,25.07
2019-02-20T11:18:13.669Z,29.17
2019-02-20T11:20:48.427Z,27.83
2019-02-20T11:23:18.029Z,27.53
2019-02-20T11:25:49.321Z,26.90
2019-02-20T11:28:26.768Z,29.63
2019-02-20T11:30:53.688Z,27.20
2019-02-20T11:33:24.917Z,22.67
2019-02-20T11:35:56.127Z,25.30
2019-02-20T11:38:27.310Z,23.77
2019-02-20T11:40:58.574Z,29.70
2019-02-20T11:43:39.919Z,20.67
2019-02-20T11:46:11.139Z,23.20
2019-02-20T11:48:42.371Z,24.97
2019-02-20T11:51:13.678Z,22.30
2019-02-20T11:53:46.134Z,22.70
2019-02-20T11:56:26.454Z,26.00
2019-02-20T11:58:53.157Z,27.20
2019-02-20T12:01:24.460Z,26.90
2019-02-20T12:03:56.743Z,30.43
2019-02-20T12:06:27.944Z,32.80
2019-02-20T12:08:59.225Z,26.00
2019-02-20T12:11:30.491Z,34.13
2019-02-20T12:14:01.806Z,30.53
2019-02-20T12:16:36.151Z,24.23
2019-02-20T12:19:07.438Z,25.80
2019-02-20T12:21:38.852Z,22.57
2019-02-20T12:24:11.835Z,28.47
2019-02-20T12:26:44.985Z,25.53
2019-02-20T12:29:16.385Z,25.20
2019-02-20T12:31:52.496Z,25.97
2019-02-20T12:34:24.213Z,26.20
2019-02-20T12:36:58.585Z,17.93
2019-02-20T12:39:33.198Z,19.17
2019-02-20T12:42:04.575Z,16.80
2019-02-20T12:44:35.806Z,11.10
2019-02-20T12:47:10.478Z,11.30
2019-02-20T12:49:42.096Z,15.23
2019-02-20T12:52:13.484Z,18.00
2019-02-20T12:54:44.731Z,15.10
2019-02-20T12:57:16.064Z,17.10
2019-02-20T12:59:47.303Z,14.73
2019-02-20T13:02:18.619Z,15.50
2019-02-20T13:04:49.911Z,13.07
2019-02-20T13:07:21.291Z,13.47
2019-02-20T13:09:52.569Z,11.80
2019-02-20T13:12:23.875Z,17.63
2019-02-20T13:14:55.146Z,11.90
2019-02-20T13:17:26.408Z,16.50
2019-02-20T13:19:57.636Z,13.93
2019-02-20T13:22:28.911Z,14.60
2019-02-20T13:25:00.312Z,12.37
2019-02-20T13:27:31.563Z,15.50
2019-02-20T13:30:02.869Z,23.23
2019-02-20T13:32:34.143Z,16.50
2019-02-20T13:35:05.585Z,18.13
2019-02-20T13:37:36.902Z,14.30
2019-02-20T13:40:09.232Z,13.73
2019-02-20T13:42:40.846Z,16.23
2019-02-20T13:45:12.295Z,15.70
2019-02-20T13:47:43.676Z,14.33
2019-02-20T13:50:14.965Z,19.87
2019-02-20T13:52:52.406Z,20.63
2019-02-20T13:55:19.503Z,22.93
2019-02-20T13:57:50.840Z,13.13
2019-02-20T14:00:22.055Z,11.37
2019-02-20T14:02:53.372Z,15.93
2019-02-20T14:05:25.067Z,18.60
2019-02-20T14:07:56.318Z,9.73
2019-02-20T14:10:27.515Z,14.03
2019-02-20T14:12:58.808Z,12.80
2019-02-20T14:15:30.070Z,15.00
2019-02-20T14:18:01.300Z,10.73
2019-02-20T14:20:32.648Z,18.83
2019-02-20T14:23:03.944Z,14.60
2019-02-20T14:25:36.456Z,12.43
2019-02-20T14:28:08.398Z,11.50
2019-02-20T14:30:39.804Z,13.50
2019-02-20T14:33:10.953Z,11.50
2019-02-20T14:35:42.280Z,11.40
2019-02-20T14:38:13.698Z,9.20
2019-02-20T14:40:44.973Z,8.13
2019-02-20T14:43:16.226Z,13.23
2019-02-20T14:45:47.745Z,8.50
2019-02-20T14:48:19.047Z,12.60
2019-02-20T14:50:50.329Z,8.73
2019-02-20T14:53:21.501Z,7.17
2019-02-20T14:55:52.808Z,12.20
2019-02-20T14:58:24.371Z,10.00
2019-02-20T15:00:55.699Z,16.67
2019-02-20T15:03:26.973Z,7.20
2019-02-20T15:05:58.224Z,8.60
2019-02-20T15:08:29.407Z,12.03
2019-02-20T15:11:00.664Z,7.37
2019-02-20T15:13:31.928Z,8.27
2019-02-20T15:16:06.183Z,10.00
2019-02-20T15:18:37.427Z,10.37
2019-02-20T15:21:08.687Z,5.63
2019-02-20T15:23:42.993Z,7.83
2019-02-20T15:26:20.399Z,8.33
2019-02-20T15:28:51.686Z,9.97
2019-02-20T15:31:22.954Z,7.70
2019-02-20T15:33:54.200Z,9.40
2019-02-20T15:36:25.836Z,8.70
2019-02-20T15:38:57.074Z,6.97
2019-02-20T15:41:28.352Z,6.10
2019-02-20T15:44:02.564Z,6.13
2019-02-20T15:46:33.906Z,7.60
2019-02-20T15:49:05.755Z,6.50
2019-02-20T15:51:37.142Z,11.90
2019-02-20T15:54:08.393Z,6.50
2019-02-20T15:56:39.712Z,12.03
2019-02-20T15:59:11.094Z,8.57
2019-02-20T16:01:42.396Z,5.73
2019-02-20T16:04:13.665Z,10.53
2019-02-20T16:06:44.981Z,10.57
2019-02-20T16:09:16.328Z,10.37
2019-02-20T16:11:47.746Z,8.53
2019-02-20T16:14:18.930Z,9.13
2019-02-20T16:16:50.438Z,9.30
2019-02-20T16:19:21.659Z,13.90
2019-02-20T16:21:52.935Z,9.93
2019-02-20T16:24:24.184Z,13.97
2019-02-20T16:26:55.474Z,12.80
2019-02-20T16:29:27.031Z,14.93
2019-02-20T16:31:58.417Z,13.23
2019-02-20T16:34:29.678Z,10.50
2019-02-20T16:37:00.987Z,12.40
2019-02-20T16:39:32.280Z,10.70
2019-02-20T16:42:03.569Z,13.57
2019-02-20T16:44:41.183Z,17.57
2019-02-20T16:47:12.482Z,9.13
2019-02-20T16:49:43.760Z,12.33
2019-02-20T16:52:44.260Z,11.87
2019-02-20T16:55:37.076Z,18.00
2019-02-20T16:58:08.477Z,11.03
2019-02-20T17:00:40.666Z,10.53
2019-02-20T17:03:12.333Z,12.67
2019-02-20T17:05:43.588Z,17.23
2019-02-20T17:08:14.927Z,10.80
2019-02-20T17:10:46.119Z,14.23
2019-02-20T17:13:17.673Z,12.23
2019-02-20T17:15:49.038Z,13.67
2019-02-20T17:18:20.395Z,13.27
2019-02-20T17:20:51.801Z,9.53
2019-02-20T17:23:23.175Z,9.63
2019-02-20T17:25:54.611Z,16.23
2019-02-20T17:28:25.908Z,9.83
2019-02-20T17:30:57.378Z,11.90
2019-02-20T17:33:28.648Z,11.10
2019-02-20T17:36:02.545Z,14.17
2019-02-20T17:38:34.330Z,10.23
2019-02-20T17:41:05.928Z,12.30
2019-02-20T17:43:37.111Z,11.53
2019-02-20T17:46:08.371Z,15.20
2019-02-20T17:48:39.789Z,14.77
2019-02-20T17:51:11.056Z,14.67
2019-02-20T17:53:42.273Z,12.83
2019-02-20T17:56:13.514Z,11.00
2019-02-20T17:58:44.864Z,12.83
2019-02-20T18:01:18.730Z,12.40
2019-02-20T18:03:50.192Z,15.90
2019-02-20T18:06:21.371Z,12.50
2019-02-20T18:08:52.690Z,15.80
2019-02-20T18:11:24.020Z,11.97
2019-02-20T18:13:55.300Z,13.53
2019-02-20T18:16:26.570Z,11.90
2019-02-20T18:19:00.720Z,12.37
2019-02-20T18:21:31.960Z,11.03
2019-02-20T18:24:03.251Z,10.87
2019-02-20T18:26:34.602Z,11.10
2019-02-20T18:29:05.861Z,14.00
2019-02-20T18:31:38.345Z,14.90
2019-02-20T18:34:10.096Z,13.40
2019-02-20T18:36:41.456Z,15.23
2019-02-20T18:39:12.726Z,15.00
2019-02-20T18:41:44.240Z,14.63
2019-02-20T18:44:15.590Z,19.10
2019-02-20T18:46:47.030Z,14.40
2019-02-20T18:49:18.412Z,13.57
2019-02-20T18:51:51.330Z,15.30
2019-02-20T18:54:22.612Z,15.10
2019-02-20T18:56:54.014Z,14.60
2019-02-20T18:59:25.257Z,18.87
2019-02-20T19:01:56.548Z,16.73
2019-02-20T19:04:27.936Z,17.90
2019-02-20T19:06:59.360Z,13.87
2019-02-20T19:09:31.807Z,14.20
2019-02-20T19:12:57.526Z,15.83
2019-02-20T19:16:01.879Z,16.70
2019-02-20T19:19:20.022Z,13.50
2019-02-20T19:22:29.597Z,22.10
2019-02-20T19:26:11.822Z,17.20
2019-02-20T19:29:25.037Z,17.07
2019-02-20T19:32:42.759Z,16.40
2019-02-20T19:35:51.942Z,16.50
2019-02-20T19:39:17.222Z,19.77
2019-02-20T19:42:46.584Z,16.77
2019-02-20T19:46:00.393Z,18.73
2019-02-20T19:49:35.508Z,17.87
2019-02-20T19:53:15.423Z,17.33
2019-02-20T19:56:28.334Z,19.30
2019-02-20T19:59:47.029Z,17.40
2019-02-20T20:03:24.635Z,21.80
2019-02-20T20:06:46.414Z,19.23
2019-02-20T20:10:11.693Z,17.33
2019-02-20T20:13:52.136Z,18.30
2019-02-20T20:17:04.164Z,16.17
2019-02-20T20:20:35.205Z,23.07
2019-02-20T20:23:47.807Z,15.97
2019-02-20T20:27:39.506Z,19.33
2019-02-20T20:31:02.678Z,15.67
2019-02-20T20:34:32.405Z,16.23
2019-02-20T20:37:52.636Z,17.17
2019-02-20T20:41:27.381Z,21.23
2019-02-20T20:44:28.120Z,20.23
2019-02-20T20:47:43.345Z,21.70
2019-02-20T20:50:33.580Z,19.97
2019-02-20T20:54:26.533Z,16.80
2019-02-20T20:57:47.440Z,17.90
2019-02-20T21:01:27.296Z,18.63
2019-02-20T21:04:31.373Z,23.90
2019-02-20T21:07:50.974Z,23.57
2019-02-20T21:10:59.968Z,20.20
2019-02-20T21:14:18.736Z,20.10
2019-02-20T21:18:10.480Z,19.07
2019-02-20T21:21:38.324Z,17.47
2019-02-20T21:25:10.466Z,19.90
2019-02-20T21:28:38.743Z,20.40
2019-02-20T21:31:48.135Z,21.50
2019-02-20T21:34:48.469Z,24.00
2019-02-20T21:38:11.962Z,21.40
2019-02-20T21:41:37.081Z,22.73
2019-02-20T21:45:06.151Z,22.10
2019-02-20T21:48:40.552Z,23.00
2019-02-20T21:51:52.172Z,26.10
2019-02-20T21:55:15.690Z,19.93
2019-02-20T21:58:45.105Z,21.77
2019-02-20T22:01:50.780Z,21.47
2019-02-20T22:05:00.739Z,21.87
2019-02-20T22:08:20.933Z,23.70
2019-02-20T22:11:42.223Z,24.10
2019-02-20T22:15:21.867Z,21.00
2019-02-20T22:18:54.478Z,24.07
2019-02-20T22:22:22.697Z,21.97
2019-02-20T22:25:57.844Z,22.10
2019-02-20T22:29:34.825Z,23.73
2019-02-20T22:33:07.932Z,23.60
2019-02-20T22:36:41.045Z,16.00
2019-02-20T22:39:52.033Z,20.33
2019-02-20T22:43:15.481Z,25.50
2019-02-20T22:46:22.866Z,22.73
2019-02-20T22:49:43.783Z,21.77
2019-02-20T22:52:37.118Z,25.53
2019-02-20T22:56:06.074Z,21.80
2019-02-20T22:58:55.378Z,23.10
2019-02-20T23:02:19.451Z,23.07
2019-02-20T23:05:59.523Z,23.70
2019-02-20T23:09:08.233Z,23.60
2019-02-20T23:12:19.145Z,24.73
2019-02-20T23:15:00.045Z,26.17
2019-02-20T23:17:31.533Z,25.23
2019-02-20T23:20:02.973Z,30.87
2019-02-20T23:22:34.260Z,21.47
2019-02-20T23:25:05.869Z,25.50
2019-02-20T23:27:37.147Z,22.00
2019-02-20T23:30:12.986Z,25.03
2019-02-20T23:32:43.425Z,21.67
2019-02-20T23:35:14.861Z,24.40
2019-02-20T23:37:46.152Z,26.07
2019-02-20T23:40:17.491Z,33.87
2019-02-20T23:42:49.273Z,25.87
2019-02-20T23:45:20.663Z,24.83
2019-02-20T23:47:53.189Z,25.30
2019-02-20T23:50:24.693Z,28.57
2019-02-20T23:52:55.986Z,25.30
2019-02-20T23:55:27.168Z,28.87
2019-02-20T23:57:58.477Z,27.10
